createdAt,value
2023-05-05T00:01:15.959Z,12.68
2023-05-05T00:03:42.907Z,12.60
2023-05-05T00:06:09.615Z,12.57
2023-05-05T00:08:36.675Z,12.55
2023-05-05T00:11:03.587Z,12.50
2023-05-05T00:13:30.400Z,12.39
2023-05-05T00:15:58.479Z,12.31
2023-05-05T00:18:25.193Z,12.22
2023-05-05T00:20:52.070Z,12.17
2023-05-05T00:23:19.735Z,12.17
2023-05-05T00:25:46.689Z,12.21
2023-05-05T00:28:13.427Z,12.29
2023-05-05T00:30:40.852Z,12.33
2023-05-05T00:33:08.951Z,12.37
2023-05-05T00:35:35.746Z,12.44
2023-05-05T00:38:02.469Z,12.46
2023-05-05T00:40:29.334Z,12.40
2023-05-05T00:42:56.226Z,12.33
2023-05-05T00:45:22.984Z,12.25
2023-05-05T00:47:52.466Z,12.32
2023-05-05T00:50:22.959Z,12.34
2023-05-05T00:52:50.879Z,12.38
2023-05-05T00:55:18.389Z,12.44
2023-05-05T00:57:46.058Z,12.46
2023-05-05T01:00:13.737Z,12.49
2023-05-05T01:02:40.794Z,12.58
2023-05-05T01:05:08.490Z,12.64
2023-05-05T01:07:45.433Z,12.64
2023-05-05T01:10:20.646Z,12.56
2023-05-05T01:12:52.876Z,12.21
2023-05-05T01:15:27.548Z,12.00
2023-05-05T01:17:59.630Z,11.90
2023-05-05T01:20:33.273Z,11.86
2023-05-05T01:23:05.992Z,11.78
2023-05-05T01:25:57.268Z,11.68
2023-05-05T01:28:38.205Z,11.72
2023-05-05T01:31:12.665Z,11.61
2023-05-05T01:33:45.878Z,11.52
2023-05-05T01:36:17.698Z,11.42
2023-05-05T01:38:46.026Z,11.39
2023-05-05T01:41:17.380Z,11.37
2023-05-05T01:43:48.471Z,11.37
2023-05-05T01:46:16.567Z,11.36
2023-05-05T01:48:46.443Z,11.36
2023-05-05T01:51:15.736Z,11.35
2023-05-05T01:53:42.984Z,11.42
2023-05-05T01:56:12.112Z,11.49
2023-05-05T01:58:40.548Z,11.48
2023-05-05T02:01:08.548Z,11.54
2023-05-05T02:03:37.737Z,11.58
2023-05-05T02:06:08.259Z,11.62
2023-05-05T02:08:37.936Z,11.59
2023-05-05T02:11:05.680Z,11.60
2023-05-05T02:13:32.896Z,11.57
2023-05-05T02:16:00.249Z,11.50
2023-05-05T02:18:27.494Z,11.47
2023-05-05T02:20:54.494Z,11.53
2023-05-05T02:23:22.894Z,11.57
2023-05-05T02:25:53.071Z,11.52
2023-05-05T02:28:23.015Z,11.55
2023-05-05T02:30:56.127Z,11.54
2023-05-05T02:33:25.553Z,11.50
2023-05-05T02:35:54.267Z,11.50
2023-05-05T02:38:28.666Z,11.49
2023-05-05T02:41:02.429Z,11.47
2023-05-05T02:43:31.532Z,11.46
2023-05-05T02:45:58.524Z,11.44
2023-05-05T02:48:25.858Z,11.39
2023-05-05T02:50:54.552Z,11.33
2023-05-05T02:53:29.285Z,11.22
2023-05-05T02:56:05.933Z,11.14
2023-05-05T02:58:42.221Z,11.07
2023-05-05T03:01:25.599Z,10.96
2023-05-05T03:04:00.986Z,10.89
2023-05-05T03:06:29.665Z,10.87
2023-05-05T03:09:05.685Z,10.78
2023-05-05T03:11:36.907Z,10.70
2023-05-05T03:14:10.076Z,10.62
2023-05-05T03:16:39.775Z,10.55
2023-05-05T03:19:10.289Z,10.50
2023-05-05T03:21:37.604Z,10.49
2023-05-05T03:24:14.713Z,10.56
2023-05-05T03:26:43.837Z,10.51
2023-05-05T03:29:11.117Z,10.49
2023-05-05T03:31:39.795Z,10.46
2023-05-05T03:34:06.916Z,10.36
2023-05-05T03:36:40.314Z,10.31
2023-05-05T03:39:10.355Z,10.22
2023-05-05T03:41:39.224Z,10.13
2023-05-05T03:44:08.739Z,10.01
2023-05-05T03:46:36.861Z,9.99
2023-05-05T03:49:05.486Z,9.93
2023-05-05T03:51:32.989Z,9.79
2023-05-05T03:54:00.265Z,9.66
2023-05-05T03:56:27.363Z,9.53
2023-05-05T03:58:55.458Z,9.51
2023-05-05T04:01:22.480Z,9.47
2023-05-05T04:03:49.264Z,9.42
2023-05-05T04:06:16.122Z,9.34
2023-05-05T04:08:42.958Z,9.26
2023-05-05T04:11:09.834Z,9.14
2023-05-05T04:13:36.700Z,9.08
2023-05-05T04:16:05.178Z,9.05
2023-05-05T04:18:32.177Z,9.01
2023-05-05T04:20:59.296Z,9.02
2023-05-05T04:23:26.673Z,9.05
2023-05-05T04:25:53.896Z,9.04
2023-05-05T04:28:21.772Z,9.12
2023-05-05T04:30:49.110Z,9.26
2023-05-05T04:33:17.492Z,9.45
2023-05-05T04:35:46.256Z,9.66
2023-05-05T04:38:13.086Z,9.86
2023-05-05T04:40:40.400Z,10.10
2023-05-05T04:43:08.622Z,10.32
2023-05-05T04:45:36.609Z,10.52
2023-05-05T04:48:03.702Z,10.60
2023-05-05T04:50:33.263Z,10.70
2023-05-05T04:53:00.224Z,10.73
2023-05-05T04:55:27.268Z,10.77
2023-05-05T04:57:54.043Z,10.80
2023-05-05T05:00:20.981Z,10.84
2023-05-05T05:02:47.802Z,10.84
2023-05-05T05:05:14.568Z,10.87
2023-05-05T05:07:42.961Z,10.85
2023-05-05T05:10:10.498Z,10.85
2023-05-05T05:12:37.532Z,10.87
2023-05-05T05:15:05.521Z,10.86
2023-05-05T05:17:32.488Z,10.92
2023-05-05T05:20:00.335Z,11.16
2023-05-05T05:22:28.049Z,11.35
2023-05-05T05:24:56.242Z,11.58
2023-05-05T05:27:23.103Z,11.79
2023-05-05T05:29:52.294Z,11.99
2023-05-05T05:32:19.105Z,11.98
2023-05-05T05:34:46.069Z,12.13
2023-05-05T05:37:13.270Z,12.23
2023-05-05T05:39:42.654Z,12.29
2023-05-05T05:42:12.261Z,12.36
2023-05-05T05:44:39.644Z,12.39
2023-05-05T05:47:06.575Z,12.49
2023-05-05T05:49:33.561Z,12.63
2023-05-05T05:52:01.184Z,12.70
2023-05-05T05:54:28.501Z,12.69
2023-05-05T05:56:55.511Z,12.71
2023-05-05T05:59:23.715Z,12.58
2023-05-05T06:01:50.519Z,12.58
2023-05-05T06:04:17.404Z,12.63
2023-05-05T06:06:44.218Z,12.80
2023-05-05T06:09:11.037Z,13.11
2023-05-05T06:11:38.076Z,13.28
2023-05-05T06:14:06.078Z,13.39
2023-05-05T06:16:34.405Z,13.49
2023-05-05T06:19:05.050Z,13.40
2023-05-05T06:21:32.001Z,13.39
2023-05-05T06:23:59.099Z,13.54
2023-05-05T06:26:26.270Z,13.66
2023-05-05T06:28:53.191Z,13.69
2023-05-05T06:31:19.957Z,13.76
2023-05-05T06:33:48.323Z,13.77
2023-05-05T06:36:15.087Z,13.78
2023-05-05T06:38:42.267Z,13.79
2023-05-05T06:41:09.048Z,13.88
2023-05-05T06:43:35.871Z,13.96
2023-05-05T06:46:07.734Z,14.19
2023-05-05T06:48:34.560Z,14.86
2023-05-05T06:51:03.872Z,15.70
2023-05-05T06:53:31.122Z,15.15
2023-05-05T06:55:57.822Z,14.83
2023-05-05T06:58:25.061Z,14.76
2023-05-05T07:00:51.996Z,14.68
2023-05-05T07:03:19.133Z,14.74
2023-05-05T07:05:45.996Z,14.75
2023-05-05T07:08:14.170Z,14.88
2023-05-05T07:10:40.958Z,15.09
2023-05-05T07:15:56.785Z,15.26
2023-05-05T07:18:23.472Z,15.48
2023-05-05T07:20:50.235Z,15.53
2023-05-05T07:23:18.453Z,15.52
2023-05-05T07:25:45.378Z,15.77
2023-05-05T07:28:12.207Z,16.02
2023-05-05T07:30:38.934Z,15.93
2023-05-05T07:33:05.680Z,16.00
2023-05-05T07:35:32.593Z,16.22
2023-05-05T07:37:59.291Z,16.51
2023-05-05T07:40:27.697Z,16.88
2023-05-05T07:42:54.444Z,16.73
2023-05-05T07:45:21.256Z,17.11
2023-05-05T07:47:48.129Z,17.63
2023-05-05T07:50:15.096Z,18.44
2023-05-05T07:52:46.588Z,18.65
2023-05-05T07:55:16.788Z,19.66
2023-05-05T07:57:45.266Z,19.10
2023-05-05T08:00:13.296Z,20.05
2023-05-05T08:02:40.278Z,20.83
2023-05-05T08:05:08.384Z,20.12
2023-05-05T08:07:35.338Z,20.45
2023-05-05T08:10:02.207Z,20.26
2023-05-05T08:12:29.130Z,20.20
2023-05-05T08:14:57.271Z,20.24
2023-05-05T08:17:24.172Z,19.88
2023-05-05T08:19:52.207Z,19.50
2023-05-05T08:22:19.010Z,19.49
2023-05-05T08:24:45.725Z,20.06
2023-05-05T08:27:12.504Z,20.32
2023-05-05T08:29:39.340Z,21.32
2023-05-05T08:32:07.784Z,20.97
2023-05-05T08:34:34.518Z,20.65
2023-05-05T08:37:01.250Z,21.42
2023-05-05T08:39:28.014Z,21.12
2023-05-05T08:41:54.803Z,20.97
2023-05-05T08:44:21.527Z,19.98
2023-05-05T08:46:49.812Z,20.67
2023-05-05T08:49:18.916Z,20.62
2023-05-05T08:51:46.744Z,19.91
2023-05-05T08:54:18.161Z,19.61
2023-05-05T08:56:47.182Z,19.87
2023-05-05T08:59:15.901Z,19.07
2023-05-05T09:01:44.168Z,19.69
2023-05-05T09:04:11.217Z,19.81
2023-05-05T09:06:39.930Z,19.73
2023-05-05T09:09:06.954Z,19.22
2023-05-05T09:11:34.468Z,19.08
2023-05-05T09:16:45.932Z,19.26
2023-05-05T09:19:12.736Z,19.22
2023-05-05T09:21:47.340Z,20.33
2023-05-05T09:24:14.078Z,19.89
2023-05-05T09:26:42.622Z,20.44
2023-05-05T09:29:09.898Z,20.82
2023-05-05T09:31:37.259Z,20.26
2023-05-05T09:34:14.447Z,19.57
2023-05-05T09:36:44.490Z,20.54
2023-05-05T09:39:14.282Z,19.94
2023-05-05T09:45:35.755Z,20.08
2023-05-05T09:48:02.767Z,20.76
2023-05-05T09:50:29.661Z,20.71
2023-05-05T09:52:59.217Z,21.20
2023-05-05T09:55:26.130Z,20.56
2023-05-05T09:57:52.982Z,20.84
2023-05-05T10:00:20.792Z,20.32
2023-05-05T10:02:47.772Z,20.28
2023-05-05T10:09:19.802Z,20.19
2023-05-05T10:11:47.134Z,20.27
2023-05-05T10:14:18.606Z,20.17
2023-05-05T10:16:48.405Z,19.45
2023-05-05T10:19:16.335Z,19.89
2023-05-05T10:21:47.212Z,19.74
2023-05-05T10:24:20.582Z,19.36
2023-05-05T10:26:52.151Z,19.21
2023-05-05T10:29:27.846Z,18.88
2023-05-05T10:31:58.678Z,19.44
2023-05-05T10:34:31.080Z,19.58
2023-05-05T10:36:57.946Z,19.23
2023-05-05T10:39:26.378Z,18.95
2023-05-05T10:41:54.606Z,18.90
2023-05-05T10:44:22.932Z,18.50
2023-05-05T10:46:50.093Z,18.37
2023-05-05T10:49:25.035Z,18.48
2023-05-05T10:51:57.889Z,18.46
2023-05-05T10:54:30.677Z,18.64
2023-05-05T10:57:00.607Z,18.79
2023-05-05T10:59:40.640Z,18.47
2023-05-05T11:02:25.003Z,18.32
2023-05-05T11:05:11.872Z,18.47
2023-05-05T11:07:38.761Z,18.11
2023-05-05T11:10:07.642Z,17.59
2023-05-05T11:13:19.612Z,17.78
2023-05-05T11:15:46.780Z,17.83
2023-05-05T11:18:32.197Z,18.02
2023-05-05T11:21:06.706Z,18.14
2023-05-05T11:23:33.714Z,17.82
2023-05-05T11:26:00.484Z,18.08
2023-05-05T11:28:30.054Z,18.30
2023-05-05T11:31:18.724Z,18.33
2023-05-05T11:33:45.706Z,18.00
2023-05-05T11:36:13.736Z,18.11
2023-05-05T11:38:52.715Z,18.12
2023-05-05T11:41:30.725Z,17.97
2023-05-05T11:44:10.848Z,17.91
2023-05-05T11:46:39.506Z,17.81
2023-05-05T11:49:07.435Z,17.65
2023-05-05T11:51:34.313Z,17.59
2023-05-05T11:54:01.059Z,17.55
2023-05-05T11:56:27.873Z,17.29
2023-05-05T11:59:09.163Z,17.42
2023-05-05T12:01:39.935Z,17.30
2023-05-05T12:04:07.009Z,17.26
2023-05-05T12:06:33.944Z,17.11
2023-05-05T12:09:01.140Z,16.93
2023-05-05T12:11:27.845Z,17.07
2023-05-05T12:14:07.909Z,16.98
2023-05-05T12:16:34.666Z,17.09
2023-05-05T12:19:07.659Z,17.12
2023-05-05T12:21:35.331Z,16.94
2023-05-05T12:24:02.269Z,16.79
2023-05-05T12:30:33.737Z,16.31
2023-05-05T12:33:01.560Z,16.29
2023-05-05T12:35:30.429Z,16.09
2023-05-05T12:37:57.211Z,16.18
2023-05-05T12:40:43.514Z,16.00
2023-05-05T12:43:10.351Z,15.81
2023-05-05T12:45:37.048Z,15.70
2023-05-05T12:48:21.656Z,15.84
2023-05-05T12:50:49.711Z,15.81
2023-05-05T12:53:21.061Z,15.65
2023-05-05T12:55:47.822Z,15.77
2023-05-05T12:58:14.542Z,15.87
2023-05-05T13:00:41.441Z,15.68
2023-05-05T13:03:18.892Z,15.62
2023-05-05T13:05:46.020Z,15.54
2023-05-05T13:08:14.586Z,15.55
2023-05-05T13:10:56.376Z,15.44
2023-05-05T13:13:23.087Z,15.35
2023-05-05T13:15:49.814Z,15.27
2023-05-05T13:18:16.504Z,15.18
2023-05-05T13:20:43.220Z,15.19
2023-05-05T13:23:09.917Z,15.11
2023-05-05T13:25:37.972Z,15.07
2023-05-05T13:28:05.107Z,15.13
2023-05-05T13:30:31.790Z,15.22
2023-05-05T13:32:58.578Z,15.19
2023-05-05T13:35:25.396Z,15.27
2023-05-05T13:37:52.222Z,15.32
2023-05-05T13:40:18.939Z,15.19
2023-05-05T13:42:47.044Z,15.24
2023-05-05T13:45:13.803Z,15.24
2023-05-05T13:47:40.547Z,15.26
2023-05-05T13:50:08.061Z,15.25
2023-05-05T13:52:34.793Z,15.27
2023-05-05T13:55:01.536Z,15.20
2023-05-05T13:57:28.476Z,15.15
2023-05-05T14:04:08.740Z,15.19
2023-05-05T14:06:35.884Z,15.16
2023-05-05T14:09:03.050Z,15.29
2023-05-05T14:11:29.724Z,15.35
2023-05-05T14:13:56.460Z,15.39
2023-05-05T14:20:47.335Z,15.53
2023-05-05T14:23:14.067Z,15.51
2023-05-05T14:25:40.779Z,15.55
2023-05-05T14:28:07.649Z,15.67
2023-05-05T14:30:34.381Z,15.54
2023-05-05T14:33:01.222Z,15.79
2023-05-05T14:35:28.096Z,15.96
2023-05-05T14:37:56.275Z,16.14
2023-05-05T14:40:23.290Z,16.37
2023-05-05T14:42:49.897Z,16.37
2023-05-05T14:45:16.792Z,16.06
2023-05-05T14:47:43.496Z,16.15
2023-05-05T14:54:36.713Z,16.21
2023-05-05T14:57:03.862Z,16.05
2023-05-05T15:03:24.783Z,15.83
2023-05-05T15:05:51.634Z,15.76
2023-05-05T15:08:18.456Z,15.46
2023-05-05T15:14:41.031Z,15.30
2023-05-05T15:17:07.743Z,15.25
2023-05-05T15:19:34.684Z,15.18
2023-05-05T15:22:01.324Z,15.20
2023-05-05T15:24:28.058Z,15.47
2023-05-05T15:26:54.834Z,15.94
2023-05-05T15:29:22.291Z,16.38
2023-05-05T15:31:50.885Z,16.79
2023-05-05T15:34:17.890Z,16.73
2023-05-05T15:36:47.921Z,17.35
2023-05-05T15:39:14.828Z,18.06
2023-05-05T15:41:42.182Z,17.88
2023-05-05T15:44:11.627Z,17.77
2023-05-05T15:46:38.530Z,17.83
2023-05-05T15:49:06.733Z,17.53
2023-05-05T15:51:33.445Z,17.08
2023-05-05T15:54:00.459Z,16.66
2023-05-05T15:56:27.558Z,16.95
2023-05-05T15:58:54.313Z,17.53
2023-05-05T16:01:21.429Z,17.25
2023-05-05T16:03:48.166Z,17.97
2023-05-05T16:06:16.312Z,18.49
2023-05-05T16:08:43.086Z,18.26
2023-05-05T16:11:11.055Z,18.10
2023-05-05T16:13:38.041Z,17.62
2023-05-05T16:16:05.444Z,17.52
2023-05-05T16:18:32.237Z,17.69
2023-05-05T16:20:59.006Z,17.61
2023-05-05T16:23:27.268Z,17.29
2023-05-05T16:25:54.175Z,17.57
2023-05-05T16:28:21.659Z,17.53
2023-05-05T16:30:48.525Z,17.51
2023-05-05T16:33:15.524Z,17.33
2023-05-05T16:35:43.957Z,17.38
2023-05-05T16:38:10.781Z,17.10
2023-05-05T16:40:40.175Z,17.00
2023-05-05T16:43:07.584Z,17.22
2023-05-05T16:45:34.361Z,17.25
2023-05-05T16:48:01.418Z,17.13
2023-05-05T16:54:22.927Z,16.62
2023-05-05T17:00:44.893Z,16.29
2023-05-05T17:03:11.606Z,16.21
2023-05-05T17:05:38.469Z,16.33
2023-05-05T17:08:05.175Z,16.53
2023-05-05T17:10:31.868Z,16.61
2023-05-05T17:12:58.573Z,16.71
2023-05-05T17:15:25.346Z,16.76
2023-05-05T17:17:53.438Z,16.85
2023-05-05T17:20:20.374Z,16.85
2023-05-05T17:22:47.273Z,16.88
2023-05-05T17:25:13.994Z,16.91
2023-05-05T17:27:40.745Z,17.03
2023-05-05T17:30:09.033Z,17.33
2023-05-05T17:32:35.709Z,17.23
2023-05-05T17:35:04.042Z,17.50
2023-05-05T17:37:30.725Z,17.59
2023-05-05T17:39:57.508Z,17.94
2023-05-05T17:42:24.236Z,17.83
2023-05-05T17:44:50.920Z,17.46
2023-05-05T17:47:17.806Z,17.10
2023-05-05T17:49:44.509Z,17.15
2023-05-05T17:52:12.717Z,16.96
2023-05-05T17:54:39.408Z,16.87
2023-05-05T17:57:06.257Z,16.62
2023-05-05T17:59:32.996Z,16.31
2023-05-05T18:01:59.884Z,16.18
2023-05-05T18:08:31.464Z,16.91
2023-05-05T18:10:58.167Z,16.74
2023-05-05T18:13:24.988Z,16.48
2023-05-05T18:19:55.515Z,15.93
2023-05-05T18:22:22.209Z,15.69
2023-05-05T18:28:55.084Z,15.29
2023-05-05T18:31:29.001Z,15.21
2023-05-05T18:33:55.829Z,15.11
2023-05-05T18:40:26.039Z,14.83
2023-05-05T18:42:52.732Z,14.69
2023-05-05T18:49:24.483Z,14.21
2023-05-05T18:51:51.206Z,14.06
2023-05-05T18:54:17.980Z,13.89
2023-05-05T18:56:44.710Z,13.68
2023-05-05T18:59:11.452Z,13.50
2023-05-05T19:01:38.142Z,13.35
2023-05-05T19:04:08.517Z,13.19
2023-05-05T19:06:41.036Z,12.94
2023-05-05T19:09:07.835Z,12.85
2023-05-05T19:11:34.569Z,12.68
2023-05-05T19:14:01.348Z,12.51
2023-05-05T19:16:30.045Z,12.32
2023-05-05T19:18:56.884Z,12.16
2023-05-05T19:21:23.576Z,12.05
2023-05-05T19:23:51.697Z,11.87
2023-05-05T19:26:18.415Z,11.75
2023-05-05T19:28:45.129Z,11.63
2023-05-05T19:31:11.862Z,11.50
2023-05-05T19:33:38.734Z,11.40
2023-05-05T19:36:05.900Z,11.27
2023-05-05T19:38:32.658Z,11.20
2023-05-05T19:41:00.915Z,11.13
2023-05-05T19:43:27.756Z,11.13
2023-05-05T19:45:54.562Z,11.07
2023-05-05T19:48:21.517Z,10.94
2023-05-05T19:50:48.293Z,10.86
2023-05-05T19:53:15.023Z,10.76
2023-05-05T19:55:41.930Z,10.77
2023-05-05T19:58:10.016Z,10.77
2023-05-05T20:00:36.745Z,10.77
2023-05-05T20:03:03.510Z,10.76
2023-05-05T20:05:30.261Z,10.71
2023-05-05T20:07:57.124Z,10.72
2023-05-05T20:10:23.901Z,10.68
2023-05-05T20:12:50.649Z,10.60
2023-05-05T20:15:20.517Z,10.53
2023-05-05T20:17:48.032Z,10.41
2023-05-05T20:20:17.286Z,10.43
2023-05-05T20:22:44.599Z,10.36
2023-05-05T20:25:11.401Z,10.36
2023-05-05T20:27:38.274Z,10.32
2023-05-05T20:30:06.459Z,10.28
2023-05-05T20:32:34.932Z,10.22
2023-05-05T20:35:02.217Z,10.23
2023-05-05T20:37:29.036Z,10.25
2023-05-05T20:39:55.751Z,10.22
2023-05-05T20:42:22.466Z,10.15
2023-05-05T20:44:49.192Z,10.05
2023-05-05T20:47:15.879Z,10.15
2023-05-05T20:49:43.979Z,10.30
2023-05-05T20:52:10.682Z,10.34
2023-05-05T20:54:37.388Z,10.36
2023-05-05T20:57:04.283Z,10.40
2023-05-05T20:59:31.162Z,10.47
2023-05-05T21:01:58.011Z,10.52
2023-05-05T21:04:24.805Z,10.61
2023-05-05T21:06:52.984Z,10.68
2023-05-05T21:09:19.764Z,10.81
2023-05-05T21:11:46.477Z,10.88
2023-05-05T21:14:13.207Z,10.86
2023-05-05T21:16:40.007Z,10.76
2023-05-05T21:19:06.958Z,10.69
2023-05-05T21:21:33.733Z,10.63
2023-05-05T21:24:02.226Z,10.52
2023-05-05T21:26:29.005Z,10.49
2023-05-05T21:28:55.699Z,10.50
2023-05-05T21:31:22.822Z,10.55
2023-05-05T21:33:49.779Z,10.72
2023-05-05T21:36:16.998Z,10.94
2023-05-05T21:38:43.745Z,11.18
2023-05-05T21:41:11.841Z,11.26
2023-05-05T21:43:38.608Z,11.35
2023-05-05T21:46:05.990Z,11.36
2023-05-05T21:48:32.889Z,11.37
2023-05-05T21:50:59.677Z,11.38
2023-05-05T21:53:26.540Z,11.37
2023-05-05T21:55:53.416Z,11.40
2023-05-05T21:58:23.221Z,11.27
2023-05-05T22:00:50.324Z,11.07
2023-05-05T22:03:17.472Z,10.87
2023-05-05T22:05:44.348Z,10.79
2023-05-05T22:08:11.254Z,10.78
2023-05-05T22:10:38.159Z,10.76
2023-05-05T22:13:05.055Z,10.78
2023-05-05T22:15:45.347Z,10.83
2023-05-05T22:18:12.987Z,10.86
2023-05-05T22:20:40.112Z,10.86
2023-05-05T22:23:06.954Z,10.79
2023-05-05T22:25:33.702Z,10.73
2023-05-05T22:28:00.707Z,10.67
2023-05-05T22:30:27.923Z,10.61
2023-05-05T22:32:56.433Z,10.55
2023-05-05T22:35:23.376Z,10.46
2023-05-05T22:37:50.245Z,10.35
2023-05-05T22:40:17.606Z,10.39
2023-05-05T22:42:44.382Z,10.45
2023-05-05T22:45:16.244Z,10.42
2023-05-05T22:47:43.383Z,10.44
2023-05-05T22:50:11.884Z,10.45
2023-05-05T22:52:38.639Z,10.38
2023-05-05T22:55:05.863Z,10.23
2023-05-05T22:57:34.866Z,10.07
2023-05-05T23:00:02.207Z,10.16
2023-05-05T23:02:29.040Z,10.24
2023-05-05T23:04:55.837Z,10.27
2023-05-05T23:07:23.976Z,10.29
2023-05-05T23:09:50.690Z,10.12
2023-05-05T23:40:53.645Z,10.97
2023-05-05T23:59:32.549Z,10.30
